createdAt,value
2018-01-11T00:00:45.951Z,22.00
2018-01-11T00:03:13.392Z,13.63
2018-01-11T00:05:40.819Z,17.83
2018-01-11T00:08:09.028Z,21.13
2018-01-11T00:10:36.470Z,17.53
2018-01-11T00:13:03.900Z,18.50
2018-01-11T00:15:32.095Z,21.00
2018-01-11T00:17:59.540Z,18.90
2018-01-11T00:20:27.743Z,17.57
2018-01-11T00:22:55.177Z,17.90
2018-01-11T00:25:26.302Z,20.13
2018-01-11T00:27:54.504Z,16.73
2018-01-11T00:30:21.932Z,19.20
2018-01-11T00:32:50.136Z,20.17
2018-01-11T00:35:17.563Z,19.97
2018-01-11T00:37:45.778Z,14.17
2018-01-11T00:40:13.207Z,21.63
2018-01-11T00:42:41.407Z,17.60
2018-01-11T00:45:08.837Z,20.77
2018-01-11T00:47:37.053Z,20.30
2018-01-11T00:50:04.474Z,18.13
2018-01-11T00:52:32.681Z,19.27
2018-01-11T00:55:00.114Z,29.20
2018-01-11T00:57:27.553Z,26.23
2018-01-11T00:59:55.748Z,21.70
2018-01-11T01:02:23.197Z,19.93
2018-01-11T01:04:52.472Z,26.00
2018-01-11T01:07:19.908Z,22.50
2018-01-11T01:09:47.335Z,21.40
2018-01-11T01:12:14.780Z,26.87
2018-01-11T01:14:42.215Z,18.87
2018-01-11T01:17:10.408Z,18.77
2018-01-11T01:19:37.845Z,18.90
2018-01-11T01:22:06.048Z,19.80
2018-01-11T01:24:33.471Z,20.67
2018-01-11T01:27:01.697Z,23.53
2018-01-11T01:29:29.127Z,21.07
2018-01-11T01:31:56.567Z,21.43
2018-01-11T01:34:24.760Z,23.40
2018-01-11T01:36:52.200Z,24.23
2018-01-11T01:39:20.391Z,18.87
2018-01-11T01:41:47.831Z,23.00
2018-01-11T01:44:16.027Z,23.43
2018-01-11T01:46:43.464Z,26.43
2018-01-11T01:49:11.724Z,30.03
2018-01-11T01:51:39.156Z,21.67
2018-01-11T01:54:06.585Z,26.30
2018-01-11T01:56:34.024Z,25.47
2018-01-11T01:59:01.455Z,24.37
2018-01-11T02:01:28.888Z,23.50
2018-01-11T02:03:56.321Z,24.30
2018-01-11T02:06:23.763Z,22.97
2018-01-11T02:08:51.192Z,22.47
2018-01-11T02:11:20.484Z,22.37
2018-01-11T02:13:48.688Z,23.20
2018-01-11T02:16:16.128Z,24.17
2018-01-11T02:18:44.318Z,24.70
2018-01-11T02:21:11.758Z,30.37
2018-01-11T02:23:39.947Z,35.40
2018-01-11T02:26:07.371Z,29.73
2018-01-11T02:28:34.812Z,28.33
2018-01-11T02:31:02.244Z,33.07
2018-01-11T02:33:29.692Z,30.97
2018-01-11T02:35:57.120Z,29.47
2018-01-11T02:38:25.388Z,27.93
2018-01-11T02:40:53.585Z,30.27
2018-01-11T02:43:21.019Z,29.97
2018-01-11T02:45:49.208Z,25.20
2018-01-11T02:48:16.640Z,29.17
2018-01-11T02:50:44.068Z,25.67
2018-01-11T02:53:11.508Z,33.93
2018-01-11T02:55:40.031Z,36.60
2018-01-11T02:58:07.465Z,34.40
2018-01-11T03:00:34.903Z,29.17
2018-01-11T03:03:02.335Z,26.60
2018-01-11T03:05:29.765Z,24.60
2018-01-11T03:07:57.205Z,32.23
2018-01-11T03:10:24.629Z,29.20
2018-01-11T03:12:52.064Z,31.83
2018-01-11T03:15:19.495Z,34.70
2018-01-11T03:17:47.696Z,30.13
2018-01-11T03:20:15.122Z,33.40
2018-01-11T03:22:42.572Z,27.03
2018-01-11T03:25:09.999Z,29.37
2018-01-11T03:27:37.433Z,28.40
2018-01-11T03:30:04.869Z,35.47
2018-01-11T03:32:33.059Z,29.73
2018-01-11T03:35:00.512Z,36.30
2018-01-11T03:37:27.936Z,24.90
2018-01-11T03:39:55.367Z,33.67
2018-01-11T03:42:22.804Z,32.47
2018-01-11T03:44:50.240Z,37.63
2018-01-11T03:47:17.663Z,31.73
2018-01-11T03:49:45.100Z,29.37
2018-01-11T03:52:12.532Z,32.93
2018-01-11T03:54:39.962Z,35.73
2018-01-11T03:57:07.397Z,28.50
2018-01-11T03:59:34.832Z,26.93
2018-01-11T04:02:02.284Z,36.00
2018-01-11T04:04:29.755Z,28.90
2018-01-11T04:06:57.432Z,33.20
2018-01-11T04:09:25.831Z,27.40
2018-01-11T04:11:53.437Z,35.97
2018-01-11T04:14:20.872Z,25.30
2018-01-11T04:16:48.324Z,39.37
2018-01-11T04:19:15.768Z,28.57
2018-01-11T04:21:44.065Z,28.10
2018-01-11T04:24:11.571Z,32.23
2018-01-11T04:26:39.111Z,31.80
2018-01-11T04:29:06.522Z,31.97
2018-01-11T04:31:33.956Z,26.27
2018-01-11T04:34:02.155Z,29.03
2018-01-11T04:36:29.586Z,26.13
2018-01-11T04:38:57.787Z,41.20
2018-01-11T04:41:25.229Z,28.50
2018-01-11T04:43:53.448Z,24.90
2018-01-11T04:46:20.955Z,34.80
2018-01-11T04:48:50.136Z,33.80
2018-01-11T04:51:17.657Z,34.17
2018-01-11T04:53:45.084Z,26.90
2018-01-11T04:56:12.506Z,28.57
2018-01-11T04:58:39.940Z,29.90
2018-01-11T05:01:07.372Z,30.33
2018-01-11T05:03:34.817Z,30.27
2018-01-11T05:06:02.248Z,29.50
2018-01-11T05:08:30.453Z,32.97
2018-01-11T05:10:57.884Z,32.13
2018-01-11T05:13:26.086Z,31.23
2018-01-11T05:15:53.623Z,30.97
2018-01-11T05:18:21.826Z,30.67
2018-01-11T05:20:49.255Z,30.87
2018-01-11T05:23:17.546Z,37.77
2018-01-11T05:25:45.733Z,26.53
2018-01-11T05:28:13.174Z,30.10
2018-01-11T05:30:41.615Z,30.80
2018-01-11T05:33:09.120Z,29.87
2018-01-11T05:35:37.646Z,23.33
2018-01-11T05:38:05.196Z,30.63
2018-01-11T05:40:32.654Z,30.70
2018-01-11T05:43:00.088Z,25.43
2018-01-11T05:45:27.515Z,29.00
2018-01-11T05:47:56.624Z,27.60
2018-01-11T05:50:24.143Z,28.50
2018-01-11T05:52:51.613Z,28.73
2018-01-11T05:55:19.900Z,27.23
2018-01-11T05:57:48.106Z,28.93
2018-01-11T06:00:15.537Z,30.83
2018-01-11T06:02:43.737Z,29.37
2018-01-11T06:05:11.176Z,26.30
2018-01-11T06:07:38.604Z,28.03
2018-01-11T06:10:06.052Z,38.17
2018-01-11T06:12:33.471Z,30.10
2018-01-11T06:15:00.904Z,26.13
2018-01-11T06:17:29.355Z,30.17
2018-01-11T06:19:56.788Z,30.93
2018-01-11T06:22:24.223Z,30.03
2018-01-11T06:24:53.672Z,24.70
2018-01-11T06:27:21.107Z,27.73
2018-01-11T06:29:48.587Z,29.60
2018-01-11T06:32:16.782Z,22.93
2018-01-11T06:34:44.987Z,28.70
2018-01-11T06:37:12.411Z,26.07
2018-01-11T06:39:40.616Z,24.00
2018-01-11T06:42:08.043Z,32.57
2018-01-11T06:44:36.235Z,23.43
2018-01-11T06:47:04.686Z,23.70
2018-01-11T06:49:33.641Z,23.87
2018-01-11T06:52:01.059Z,25.00
2018-01-11T06:54:28.483Z,25.00
2018-01-11T06:56:55.920Z,21.33
2018-01-11T06:59:23.356Z,21.40
2018-01-11T07:01:50.789Z,43.17
2018-01-11T07:04:18.207Z,31.07
2018-01-11T07:06:45.648Z,28.77
2018-01-11T07:09:13.076Z,27.17
2018-01-11T07:11:40.512Z,32.30
2018-01-11T07:14:07.940Z,26.37
2018-01-11T07:16:35.380Z,30.17
2018-01-11T07:19:02.808Z,30.37
2018-01-11T07:21:30.235Z,24.00
2018-01-11T07:23:57.676Z,35.30
2018-01-11T07:26:25.876Z,26.53
2018-01-11T07:28:53.313Z,24.30
2018-01-11T07:31:21.504Z,23.80
2018-01-11T07:33:48.936Z,28.80
2018-01-11T07:36:17.122Z,26.00
2018-01-11T07:38:44.567Z,28.73
2018-01-11T07:41:12.764Z,24.43
2018-01-11T07:43:40.191Z,27.77
2018-01-11T07:46:07.616Z,33.43
2018-01-11T07:48:35.060Z,23.93
2018-01-11T07:51:02.487Z,28.03
2018-01-11T07:53:29.916Z,27.17
2018-01-11T07:55:57.356Z,26.40
2018-01-11T07:58:24.787Z,28.47
2018-01-11T08:00:52.238Z,26.20
2018-01-11T08:03:19.668Z,24.00
2018-01-11T08:05:47.105Z,28.40
2018-01-11T08:08:14.532Z,27.00
2018-01-11T08:10:41.980Z,27.77
2018-01-11T08:13:09.423Z,27.37
2018-01-11T08:15:36.843Z,23.10
2018-01-11T08:18:05.038Z,24.33
2018-01-11T08:20:32.468Z,24.90
2018-01-11T08:22:59.887Z,20.20
2018-01-11T08:25:27.327Z,26.10
2018-01-11T08:27:54.764Z,32.80
2018-01-11T08:30:22.197Z,29.30
2018-01-11T08:32:50.401Z,32.33
2018-01-11T08:35:17.825Z,28.37
2018-01-11T08:37:45.299Z,28.60
2018-01-11T08:40:13.499Z,22.93
2018-01-11T08:42:40.923Z,29.23
2018-01-11T08:45:09.120Z,27.27
2018-01-11T08:47:36.559Z,24.90
2018-01-11T08:50:04.758Z,29.40
2018-01-11T08:52:32.188Z,29.40
2018-01-11T08:55:00.394Z,27.90
2018-01-11T08:57:27.823Z,24.40
2018-01-11T08:59:55.264Z,29.10
2018-01-11T09:02:22.694Z,27.73
2018-01-11T09:04:50.121Z,27.87
2018-01-11T09:07:17.549Z,25.60
2018-01-11T09:09:45.753Z,30.37
2018-01-11T09:12:13.180Z,23.83
2018-01-11T09:14:42.363Z,22.97
2018-01-11T09:17:09.796Z,27.77
2018-01-11T09:19:37.232Z,22.23
2018-01-11T09:22:04.660Z,23.10
2018-01-11T09:24:32.096Z,20.17
2018-01-11T09:27:00.292Z,23.93
2018-01-11T09:29:27.734Z,19.50
2018-01-11T09:31:55.936Z,22.80
2018-01-11T09:34:23.358Z,17.03
2018-01-11T09:36:51.555Z,20.00
2018-01-11T09:39:19.049Z,20.10
2018-01-11T09:41:47.184Z,18.80
2018-01-11T09:44:14.651Z,15.60
2018-01-11T09:46:42.851Z,16.30
2018-01-11T09:49:10.268Z,18.17
2018-01-11T09:51:38.457Z,19.87
2018-01-11T09:54:05.896Z,16.27
2018-01-11T09:56:34.079Z,15.47
2018-01-11T09:59:01.520Z,16.83
2018-01-11T10:01:29.715Z,18.87
2018-01-11T10:03:57.143Z,21.53
2018-01-11T10:06:25.343Z,16.93
2018-01-11T10:08:52.772Z,15.43
2018-01-11T10:11:20.205Z,18.90
2018-01-11T10:13:47.632Z,18.43
2018-01-11T10:16:15.070Z,20.30
2018-01-11T10:18:42.500Z,20.20
2018-01-11T10:21:09.936Z,17.73
2018-01-11T10:23:37.368Z,15.87
2018-01-11T10:26:04.805Z,21.80
2018-01-11T10:28:32.235Z,22.50
2018-01-11T10:30:59.673Z,19.83
2018-01-11T10:33:27.104Z,20.07
2018-01-11T10:35:54.539Z,20.00
2018-01-11T10:38:21.972Z,19.93
2018-01-11T10:40:50.166Z,18.10
2018-01-11T10:43:17.633Z,20.60
2018-01-11T10:45:45.800Z,14.50
2018-01-11T10:48:13.224Z,21.37
2018-01-11T10:50:41.419Z,16.40
2018-01-11T10:53:08.877Z,15.70
2018-01-11T10:55:37.072Z,20.57
2018-01-11T10:58:04.511Z,10.80
2018-01-11T11:00:37.688Z,17.03
2018-01-11T11:03:06.334Z,14.23
2018-01-11T11:05:33.743Z,14.57
2018-01-11T11:08:01.184Z,15.83
2018-01-11T11:10:29.716Z,14.87
2018-01-11T11:12:57.169Z,20.53
2018-01-11T11:15:24.606Z,12.30
2018-01-11T11:17:52.031Z,15.63
2018-01-11T11:20:20.281Z,13.43
2018-01-11T11:22:47.701Z,22.20
2018-01-11T11:25:15.142Z,14.23
2018-01-11T11:27:42.570Z,15.53
2018-01-11T11:30:10.018Z,19.43
2018-01-11T11:32:37.433Z,13.10
2018-01-11T11:35:04.891Z,16.27
2018-01-11T11:37:32.331Z,14.47
2018-01-11T11:39:59.767Z,14.37
2018-01-11T11:42:29.076Z,17.20
2018-01-11T11:44:56.503Z,14.63
2018-01-11T11:47:23.929Z,23.10
2018-01-11T11:49:51.372Z,17.00
2018-01-11T11:52:18.799Z,15.80
2018-01-11T11:54:47.003Z,14.20
2018-01-11T11:57:14.507Z,15.10
2018-01-11T11:59:41.981Z,18.03
2018-01-11T12:02:10.175Z,16.50
2018-01-11T12:04:37.604Z,18.07
2018-01-11T12:07:05.804Z,15.37
2018-01-11T12:09:33.237Z,18.87
2018-01-11T12:12:01.441Z,16.33
2018-01-11T12:14:28.872Z,18.40
2018-01-11T12:16:57.069Z,16.57
2018-01-11T12:19:24.511Z,18.13
2018-01-11T12:21:53.799Z,18.33
2018-01-11T12:24:21.227Z,15.27
2018-01-11T12:26:48.676Z,19.00
2018-01-11T12:29:16.100Z,18.70
2018-01-11T12:31:43.523Z,21.67
2018-01-11T12:34:11.724Z,20.00
2018-01-11T12:36:39.155Z,19.80
2018-01-11T12:39:06.583Z,18.37
2018-01-11T12:41:34.779Z,21.10
2018-01-11T12:44:02.209Z,20.97
2018-01-11T12:46:29.648Z,17.90
2018-01-11T12:48:57.076Z,18.70
2018-01-11T12:51:24.515Z,19.23
2018-01-11T12:53:52.711Z,21.97
2018-01-11T12:56:20.157Z,20.27
2018-01-11T12:58:47.580Z,19.17
2018-01-11T13:01:15.012Z,20.37
2018-01-11T13:03:42.444Z,21.50
2018-01-11T13:06:09.868Z,26.13
2018-01-11T13:08:37.311Z,21.03
2018-01-11T13:11:04.735Z,22.63
2018-01-11T13:13:33.274Z,23.90
2018-01-11T13:16:01.464Z,19.20
2018-01-11T13:18:28.909Z,25.60
2018-01-11T13:20:57.099Z,20.87
2018-01-11T13:23:24.540Z,22.43
2018-01-11T13:25:52.735Z,19.63
2018-01-11T13:28:20.172Z,23.43
2018-01-11T13:30:48.373Z,28.37
2018-01-11T13:33:15.804Z,25.67
2018-01-11T13:35:44.000Z,27.10
2018-01-11T13:38:11.444Z,23.47
2018-01-11T13:40:39.647Z,21.33
2018-01-11T13:43:07.077Z,22.37
2018-01-11T13:45:35.274Z,23.97
2018-01-11T13:48:02.704Z,26.73
2018-01-11T13:50:30.911Z,23.63
2018-01-11T13:52:58.341Z,20.63
2018-01-11T13:55:26.552Z,21.63
2018-01-11T14:01:11.344Z,24.30
2018-01-11T14:03:38.772Z,24.10
2018-01-11T14:06:06.204Z,22.07
2018-01-11T14:08:34.396Z,23.63
2018-01-11T14:11:01.827Z,22.87
2018-01-11T14:13:30.024Z,28.03
2018-01-11T14:15:57.460Z,24.53
2018-01-11T14:18:25.663Z,26.47
2018-01-11T14:20:53.105Z,28.60
2018-01-11T14:23:21.296Z,28.07
2018-01-11T14:25:48.727Z,25.73
2018-01-11T14:28:16.923Z,28.93
2018-01-11T14:30:44.376Z,27.33
2018-01-11T14:33:12.554Z,23.33
2018-01-11T14:35:39.987Z,21.27
2018-01-11T14:38:09.183Z,30.37
2018-01-11T14:40:37.383Z,28.67
2018-01-11T14:43:04.819Z,21.13
2018-01-11T14:45:33.035Z,27.63
2018-01-11T14:48:01.490Z,24.00
2018-01-11T14:50:29.696Z,25.43
2018-01-11T14:52:57.127Z,24.43
2018-01-11T14:55:24.569Z,26.50
2018-01-11T14:57:52.760Z,33.10
2018-01-11T15:00:20.226Z,27.43
2018-01-11T15:02:48.386Z,28.50
2018-01-11T15:05:15.815Z,30.83
2018-01-11T15:07:43.248Z,24.83
2018-01-11T15:10:10.691Z,25.33
2018-01-11T15:12:39.141Z,27.43
2018-01-11T15:15:07.352Z,26.83
2018-01-11T15:17:34.786Z,27.33
2018-01-11T15:20:02.214Z,25.10
2018-01-11T15:22:31.458Z,27.17
2018-01-11T15:24:58.863Z,27.03
2018-01-11T15:27:27.080Z,30.30
2018-01-11T15:29:54.530Z,31.10
2018-01-11T15:32:21.951Z,27.40
2018-01-11T15:34:50.151Z,29.93
2018-01-11T15:37:18.677Z,29.60
2018-01-11T15:39:46.088Z,31.70
2018-01-11T15:42:13.519Z,33.90
2018-01-11T15:44:41.892Z,30.03
2018-01-11T15:47:09.371Z,30.90
2018-01-11T15:49:37.576Z,30.40
2018-01-11T15:52:05.013Z,29.43
2018-01-11T15:54:32.456Z,29.30
2018-01-11T15:57:00.651Z,32.20
2018-01-11T15:59:28.090Z,27.53
2018-01-11T16:01:56.360Z,28.93
2018-01-11T16:04:24.549Z,24.13
2018-01-11T16:06:51.983Z,22.50
2018-01-11T16:09:19.436Z,30.80
2018-01-11T16:11:46.868Z,25.57
2018-01-11T16:14:14.743Z,25.47
2018-01-11T16:16:42.185Z,25.60
2018-01-11T16:19:09.664Z,21.07
2018-01-11T16:21:37.096Z,24.50
2018-01-11T16:24:04.532Z,25.17
2018-01-11T16:26:31.986Z,17.87
2018-01-11T16:28:59.388Z,22.17
2018-01-11T16:31:26.823Z,25.17
2018-01-11T16:33:54.258Z,23.77
2018-01-11T16:36:21.775Z,21.50
2018-01-11T16:38:49.979Z,27.60
2018-01-11T16:41:17.412Z,23.07
2018-01-11T16:43:45.611Z,24.53
2018-01-11T16:46:13.117Z,25.17
2018-01-11T16:48:51.651Z,23.87
2018-01-11T16:51:22.773Z,20.77
2018-01-11T16:53:52.196Z,19.63
2018-01-11T16:56:19.631Z,28.03
2018-01-11T16:58:47.068Z,24.00
2018-01-11T17:01:14.506Z,26.60
2018-01-11T17:03:41.936Z,28.17
2018-01-11T17:06:10.217Z,22.47
2018-01-11T17:08:38.411Z,23.00
2018-01-11T17:11:05.840Z,25.10
2018-01-11T17:13:33.268Z,24.70
2018-01-11T17:16:01.529Z,24.30
2018-01-11T17:18:28.946Z,24.97
2018-01-11T17:20:57.151Z,21.33
2018-01-11T17:23:24.580Z,23.73
2018-01-11T17:25:52.778Z,20.33
2018-01-11T17:28:20.208Z,28.70
2018-01-11T17:30:48.423Z,21.33
2018-01-11T17:33:15.840Z,24.60
2018-01-11T17:35:44.031Z,24.43
2018-01-11T17:38:11.467Z,22.20
2018-01-11T17:40:39.692Z,20.00
2018-01-11T17:43:15.361Z,20.80
2018-01-11T17:45:42.799Z,22.53
2018-01-11T17:48:10.244Z,20.40
2018-01-11T17:50:37.677Z,23.50
2018-01-11T17:53:05.116Z,39.00
2018-01-11T17:55:37.280Z,56.70
2018-01-11T17:58:07.500Z,25.33
2018-01-11T18:00:35.699Z,20.63
2018-01-11T18:03:03.135Z,28.37
2018-01-11T18:05:31.330Z,29.07
2018-01-11T18:07:58.765Z,22.30
2018-01-11T18:10:26.967Z,20.77
2018-01-11T18:12:54.408Z,20.87
2018-01-11T18:15:22.664Z,25.83
2018-01-11T18:17:50.626Z,28.17
2018-01-11T18:20:18.055Z,24.00
2018-01-11T18:22:45.485Z,22.33
2018-01-11T18:25:12.911Z,25.77
2018-01-11T18:27:41.108Z,21.60
2018-01-11T18:30:08.531Z,21.80
2018-01-11T18:32:35.961Z,20.20
2018-01-11T18:35:03.407Z,23.00
2018-01-11T18:37:35.678Z,18.60
2018-01-11T18:40:03.104Z,19.23
2018-01-11T18:42:30.879Z,20.57
2018-01-11T18:44:58.308Z,19.27
2018-01-11T18:47:26.503Z,18.60
2018-01-11T18:49:53.937Z,20.30
2018-01-11T18:52:22.131Z,22.53
2018-01-11T18:54:49.567Z,18.30
2018-01-11T18:57:17.772Z,20.73
2018-01-11T18:59:45.199Z,20.40
2018-01-11T19:02:13.962Z,18.30
2018-01-11T19:04:41.549Z,20.57
2018-01-11T19:07:08.956Z,19.50
2018-01-11T19:09:36.398Z,22.00
2018-01-11T19:12:03.827Z,18.30
2018-01-11T19:14:32.015Z,20.70
2018-01-11T19:16:59.444Z,25.00
2018-01-11T19:19:26.871Z,19.33
2018-01-11T19:21:54.312Z,19.33
2018-01-11T19:24:21.743Z,26.93
2018-01-11T19:26:49.992Z,20.77
2018-01-11T19:29:18.193Z,22.80
2018-01-11T19:31:46.096Z,21.53
2018-01-11T19:34:13.522Z,18.80
2018-01-11T19:36:41.096Z,17.27
2018-01-11T19:39:08.521Z,20.70
2018-01-11T19:41:36.799Z,19.53
2018-01-11T19:44:05.053Z,20.73
2018-01-11T19:46:32.524Z,18.80
2018-01-11T19:49:00.720Z,18.23
2018-01-11T19:51:28.159Z,27.77
2018-01-11T19:53:58.406Z,21.80
2018-01-11T19:56:25.844Z,26.80
2018-01-11T19:58:54.044Z,28.60
2018-01-11T20:01:21.481Z,22.70
2018-01-11T20:03:49.744Z,29.80
2018-01-11T20:06:18.006Z,31.40
2018-01-11T20:08:47.411Z,33.97
2018-01-11T20:11:14.836Z,29.67
2018-01-11T20:13:42.275Z,30.17
2018-01-11T20:16:09.783Z,29.23
2018-01-11T20:18:38.931Z,28.10
2018-01-11T20:21:06.348Z,35.30
2018-01-11T20:23:34.548Z,31.30
2018-01-11T20:26:01.971Z,24.50
2018-01-11T20:28:30.209Z,29.67
2018-01-11T20:30:57.635Z,29.63
2018-01-11T20:33:25.067Z,27.03
2018-01-11T20:35:53.275Z,30.50
2018-01-11T20:38:20.796Z,29.10
2018-01-11T20:40:48.215Z,35.20
2018-01-11T20:43:15.657Z,35.73
2018-01-11T20:45:45.108Z,26.77
2018-01-11T20:48:12.543Z,32.70
2018-01-11T20:50:40.020Z,34.53
2018-01-11T20:53:07.460Z,47.00
2018-01-11T20:55:34.895Z,36.87
2018-01-11T20:58:02.343Z,38.23
2018-01-11T21:00:29.772Z,36.00
2018-01-11T21:02:57.262Z,34.97
2018-01-11T21:05:24.689Z,32.53
2018-01-11T21:07:52.879Z,36.07
2018-01-11T21:10:20.448Z,33.00
2018-01-11T21:12:47.879Z,37.37
2018-01-11T21:15:15.307Z,34.77
2018-01-11T21:17:42.744Z,28.63
2018-01-11T21:20:10.224Z,38.33
2018-01-11T21:22:37.839Z,32.63
2018-01-11T21:25:05.267Z,29.30
2018-01-11T21:27:33.472Z,32.50
2018-01-11T21:30:00.888Z,27.37
2018-01-11T21:32:29.095Z,26.93
2018-01-11T21:34:56.512Z,26.50
2018-01-11T21:37:24.716Z,33.60
2018-01-11T21:39:52.303Z,31.90
2018-01-11T21:42:19.752Z,30.20
2018-01-11T21:44:47.178Z,33.93
2018-01-11T21:47:15.384Z,39.47
2018-01-11T21:49:42.811Z,40.03
2018-01-11T21:52:10.252Z,47.60
2018-01-11T21:54:38.755Z,39.97
2018-01-11T21:57:06.192Z,37.07
2018-01-11T21:59:34.448Z,40.40
2018-01-11T22:02:01.903Z,33.57
2018-01-11T22:04:29.332Z,39.03
2018-01-11T22:06:56.767Z,37.53
2018-01-11T22:09:24.195Z,33.50
2018-01-11T22:11:52.411Z,36.00
2018-01-11T22:14:19.835Z,30.77
2018-01-11T22:16:48.037Z,37.83
2018-01-11T22:19:15.463Z,32.83
2018-01-11T22:21:43.713Z,37.23
2018-01-11T22:24:11.155Z,31.40
2018-01-11T22:26:38.575Z,32.30
2018-01-11T22:29:06.007Z,37.37
2018-01-11T22:31:34.204Z,28.27
2018-01-11T22:34:01.654Z,32.13
2018-01-11T22:36:29.839Z,30.77
2018-01-11T22:38:57.273Z,34.60
2018-01-11T22:41:25.474Z,36.87
2018-01-11T22:43:52.904Z,31.87
2018-01-11T22:46:21.100Z,28.77
2018-01-11T22:48:48.539Z,37.63
2018-01-11T22:51:16.741Z,31.83
2018-01-11T22:53:44.171Z,37.03
2018-01-11T22:56:12.364Z,30.17
2018-01-11T22:58:39.803Z,28.43
2018-01-11T23:01:08.068Z,31.50
2018-01-11T23:03:36.268Z,36.03
2018-01-11T23:06:03.708Z,32.63
2018-01-11T23:08:31.918Z,36.63
2018-01-11T23:10:59.338Z,36.47
2018-01-11T23:13:27.548Z,35.20
2018-01-11T23:15:54.972Z,27.90
2018-01-11T23:18:23.174Z,37.27
2018-01-11T23:20:50.599Z,36.40
2018-01-11T23:23:18.812Z,32.50
2018-01-11T23:25:46.239Z,47.97
2018-01-11T23:28:14.448Z,36.53
2018-01-11T23:30:41.871Z,39.93
2018-01-11T23:33:10.055Z,42.70
2018-01-11T23:35:37.496Z,39.00
2018-01-11T23:38:05.684Z,37.10
2018-01-11T23:40:33.123Z,36.63
2018-01-11T23:43:00.541Z,35.07
2018-01-11T23:45:27.985Z,31.27
2018-01-11T23:47:55.412Z,40.37
2018-01-11T23:50:22.857Z,34.50
2018-01-11T23:52:50.296Z,32.30
2018-01-11T23:55:17.726Z,30.63
2018-01-11T23:57:45.155Z,33.80
